sensor_id;sensor_type;location;lat;lon;timestamp;pressure;altitude;pressure_sealevel;temperature;humidity
9676;BME280;4876;42.656;23.292;2024-01-07T00:01:23;92924.88;;;5.14;76.96
9676;BME280;4876;42.656;23.292;2024-01-07T00:03:49;92916.41;;;5.10;76.52
9676;BME280;4876;42.656;23.292;2024-01-07T00:06:15;92914.13;;;5.07;77.12
9676;BME280;4876;42.656;23.292;2024-01-07T00:08:40;92906.50;;;5.05;77.12
9676;BME280;4876;42.656;23.292;2024-01-07T00:11:06;92901.41;;;4.88;76.95
9676;BME280;4876;42.656;23.292;2024-01-07T00:13:31;92900.66;;;4.99;76.61
9676;BME280;4876;42.656;23.292;2024-01-07T00:15:57;92901.38;;;5.00;76.53
9676;BME280;4876;42.656;23.292;2024-01-07T00:18:22;92907.97;;;4.83;77.48
9676;BME280;4876;42.656;23.292;2024-01-07T00:20:49;92892.31;;;4.85;77.07
9676;BME280;4876;42.656;23.292;2024-01-07T00:23:15;92900.31;;;4.93;77.09
9676;BME280;4876;42.656;23.292;2024-01-07T00:25:41;92894.56;;;5.01;77.14
9676;BME280;4876;42.656;23.292;2024-01-07T00:28:06;92893.16;;;4.88;77.54
9676;BME280;4876;42.656;23.292;2024-01-07T00:30:32;92885.63;;;4.88;78.56
9676;BME280;4876;42.656;23.292;2024-01-07T00:32:57;92864.75;;;4.83;77.33
9676;BME280;4876;42.656;23.292;2024-01-07T00:35:23;92870.72;;;4.80;77.12
9676;BME280;4876;42.656;23.292;2024-01-07T00:37:48;92871.63;;;4.48;78.79
9676;BME280;4876;42.656;23.292;2024-01-07T00:40:14;92864.19;;;4.62;78.95
9676;BME280;4876;42.656;23.292;2024-01-07T00:42:39;92860.72;;;4.73;79.44
9676;BME280;4876;42.656;23.292;2024-01-07T00:45:05;92860.56;;;4.82;77.78
9676;BME280;4876;42.656;23.292;2024-01-07T00:47:31;92853.88;;;4.85;78.05
9676;BME280;4876;42.656;23.292;2024-01-07T00:49:56;92849.66;;;4.96;77.59
9676;BME280;4876;42.656;23.292;2024-01-07T00:52:22;92841.03;;;5.02;77.19
9676;BME280;4876;42.656;23.292;2024-01-07T00:54:48;92831.34;;;5.01;78.30
9676;BME280;4876;42.656;23.292;2024-01-07T00:57:14;92821.69;;;5.00;76.14
9676;BME280;4876;42.656;23.292;2024-01-07T00:59:39;92810.44;;;4.82;77.83
9676;BME280;4876;42.656;23.292;2024-01-07T01:02:05;92826.66;;;4.78;77.52
9676;BME280;4876;42.656;23.292;2024-01-07T01:04:30;92821.44;;;4.70;79.00
9676;BME280;4876;42.656;23.292;2024-01-07T01:06:56;92816.78;;;4.73;77.94
9676;BME280;4876;42.656;23.292;2024-01-07T01:09:22;92820.63;;;4.68;79.73
9676;BME280;4876;42.656;23.292;2024-01-07T01:11:47;92804.03;;;4.66;78.55
9676;BME280;4876;42.656;23.292;2024-01-07T01:14:15;92808.44;;;4.71;78.13
9676;BME280;4876;42.656;23.292;2024-01-07T01:16:40;92808.28;;;4.69;78.88
9676;BME280;4876;42.656;23.292;2024-01-07T01:19:06;92789.78;;;4.69;79.33
9676;BME280;4876;42.656;23.292;2024-01-07T01:21:32;92785.47;;;4.78;77.98
9676;BME280;4876;42.656;23.292;2024-01-07T01:23:57;92782.13;;;4.79;78.48
9676;BME280;4876;42.656;23.292;2024-01-07T01:26:23;92760.00;;;4.89;79.11
9676;BME280;4876;42.656;23.292;2024-01-07T01:28:48;92755.97;;;5.04;78.45
9676;BME280;4876;42.656;23.292;2024-01-07T01:31:14;92758.00;;;5.03;77.87
9676;BME280;4876;42.656;23.292;2024-01-07T01:33:40;92742.13;;;5.02;77.83
9676;BME280;4876;42.656;23.292;2024-01-07T01:36:06;92729.94;;;5.05;78.24
9676;BME280;4876;42.656;23.292;2024-01-07T01:38:32;92726.81;;;5.10;77.92
9676;BME280;4876;42.656;23.292;2024-01-07T01:40:57;92719.81;;;5.21;77.83
9676;BME280;4876;42.656;23.292;2024-01-07T01:43:27;92722.47;;;5.19;77.83
9676;BME280;4876;42.656;23.292;2024-01-07T01:45:54;92723.28;;;4.96;79.20
9676;BME280;4876;42.656;23.292;2024-01-07T01:48:20;92714.16;;;5.05;77.72
9676;BME280;4876;42.656;23.292;2024-01-07T01:50:47;92699.00;;;5.04;77.95
9676;BME280;4876;42.656;23.292;2024-01-07T01:53:13;92688.63;;;5.03;78.88
9676;BME280;4876;42.656;23.292;2024-01-07T01:55:38;92690.97;;;5.08;77.95
9676;BME280;4876;42.656;23.292;2024-01-07T01:58:05;92687.50;;;5.08;78.29
9676;BME280;4876;42.656;23.292;2024-01-07T02:00:32;92678.19;;;5.26;77.17
9676;BME280;4876;42.656;23.292;2024-01-07T02:02:58;92679.00;;;5.29;77.78
9676;BME280;4876;42.656;23.292;2024-01-07T02:05:26;92686.09;;;5.20;78.63
9676;BME280;4876;42.656;23.292;2024-01-07T02:07:52;92685.66;;;4.99;79.67
9676;BME280;4876;42.656;23.292;2024-01-07T02:10:18;92683.56;;;5.11;79.45
9676;BME280;4876;42.656;23.292;2024-01-07T02:12:44;92696.91;;;5.16;78.24
9676;BME280;4876;42.656;23.292;2024-01-07T02:15:09;92678.28;;;5.28;77.05
9676;BME280;4876;42.656;23.292;2024-01-07T02:17:35;92668.00;;;5.15;78.23
9676;BME280;4876;42.656;23.292;2024-01-07T02:20:00;92659.94;;;5.06;77.93
9676;BME280;4876;42.656;23.292;2024-01-07T02:22:26;92657.34;;;4.96;78.85
9676;BME280;4876;42.656;23.292;2024-01-07T02:24:51;92631.03;;;5.05;79.03
9676;BME280;4876;42.656;23.292;2024-01-07T02:27:17;92606.06;;;4.87;78.84
9676;BME280;4876;42.656;23.292;2024-01-07T02:29:42;92595.53;;;4.70;79.78
9676;BME280;4876;42.656;23.292;2024-01-07T02:32:08;92600.47;;;4.85;78.98
9676;BME280;4876;42.656;23.292;2024-01-07T02:34:33;92592.53;;;4.91;79.36
9676;BME280;4876;42.656;23.292;2024-01-07T02:36:59;92584.78;;;4.87;79.96
9676;BME280;4876;42.656;23.292;2024-01-07T02:39:24;92583.78;;;4.81;80.04
9676;BME280;4876;42.656;23.292;2024-01-07T02:41:50;92587.22;;;4.68;81.34
9676;BME280;4876;42.656;23.292;2024-01-07T02:44:15;92595.88;;;4.76;80.56
9676;BME280;4876;42.656;23.292;2024-01-07T02:46:41;92604.44;;;4.82;79.88
9676;BME280;4876;42.656;23.292;2024-01-07T02:49:07;92598.44;;;4.99;80.23
9676;BME280;4876;42.656;23.292;2024-01-07T02:51:32;92590.84;;;4.98;78.68
9676;BME280;4876;42.656;23.292;2024-01-07T02:53:58;92596.81;;;4.94;80.11
9676;BME280;4876;42.656;23.292;2024-01-07T02:56:23;92587.78;;;5.05;80.83
9676;BME280;4876;42.656;23.292;2024-01-07T02:58:49;92602.94;;;5.20;79.89
9676;BME280;4876;42.656;23.292;2024-01-07T03:01:14;92602.91;;;4.92;81.41
9676;BME280;4876;42.656;23.292;2024-01-07T03:03:39;92614.31;;;5.01;80.80
9676;BME280;4876;42.656;23.292;2024-01-07T03:06:05;92621.44;;;4.92;81.49
9676;BME280;4876;42.656;23.292;2024-01-07T03:08:31;92624.50;;;4.98;81.82
9676;BME280;4876;42.656;23.292;2024-01-07T03:10:56;92626.44;;;5.09;82.01
9676;BME280;4876;42.656;23.292;2024-01-07T03:13:22;92634.31;;;5.28;82.19
9676;BME280;4876;42.656;23.292;2024-01-07T03:15:47;92637.16;;;5.44;81.59
9676;BME280;4876;42.656;23.292;2024-01-07T03:18:13;92643.50;;;5.60;82.72
9676;BME280;4876;42.656;23.292;2024-01-07T03:20:38;92640.44;;;5.95;81.52
9676;BME280;4876;42.656;23.292;2024-01-07T03:23:04;92649.72;;;6.31;82.63
9676;BME280;4876;42.656;23.292;2024-01-07T03:25:30;92652.53;;;6.46;82.11
9676;BME280;4876;42.656;23.292;2024-01-07T03:27:55;92665.47;;;6.57;81.32
9676;BME280;4876;42.656;23.292;2024-01-07T03:30:21;92659.31;;;6.59;82.09
9676;BME280;4876;42.656;23.292;2024-01-07T03:32:46;92652.06;;;6.65;82.51
9676;BME280;4876;42.656;23.292;2024-01-07T03:35:12;92634.72;;;6.63;82.69
9676;BME280;4876;42.656;23.292;2024-01-07T03:37:37;92626.59;;;6.51;81.57
9676;BME280;4876;42.656;23.292;2024-01-07T03:40:03;92646.22;;;6.44;80.33
9676;BME280;4876;42.656;23.292;2024-01-07T03:42:29;92625.63;;;6.45;80.95
9676;BME280;4876;42.656;23.292;2024-01-07T03:44:54;92622.63;;;6.54;79.39
9676;BME280;4876;42.656;23.292;2024-01-07T03:47:20;92606.44;;;6.47;79.22
9676;BME280;4876;42.656;23.292;2024-01-07T03:49:45;92617.03;;;6.52;79.52
9676;BME280;4876;42.656;23.292;2024-01-07T03:52:10;92620.59;;;6.55;80.45
9676;BME280;4876;42.656;23.292;2024-01-07T03:54:36;92607.25;;;6.49;79.68
9676;BME280;4876;42.656;23.292;2024-01-07T03:57:02;92612.47;;;6.43;81.20
9676;BME280;4876;42.656;23.292;2024-01-07T03:59:27;92614.06;;;6.48;80.51
9676;BME280;4876;42.656;23.292;2024-01-07T04:01:56;92605.59;;;6.58;80.36
9676;BME280;4876;42.656;23.292;2024-01-07T04:04:22;92610.91;;;6.69;80.01
9676;BME280;4876;42.656;23.292;2024-01-07T04:06:48;92599.72;;;6.65;79.89
9676;BME280;4876;42.656;23.292;2024-01-07T04:09:14;92598.13;;;6.60;80.05
9676;BME280;4876;42.656;23.292;2024-01-07T04:11:40;92591.47;;;6.65;79.87
9676;BME280;4876;42.656;23.292;2024-01-07T04:14:06;92595.97;;;6.59;80.21
9676;BME280;4876;42.656;23.292;2024-01-07T04:16:31;92596.00;;;6.74;78.79
9676;BME280;4876;42.656;23.292;2024-01-07T04:18:57;92593.84;;;6.57;79.52
9676;BME280;4876;42.656;23.292;2024-01-07T04:21:22;92581.72;;;6.33;81.19
9676;BME280;4876;42.656;23.292;2024-01-07T04:23:48;92597.34;;;5.86;83.53
9676;BME280;4876;42.656;23.292;2024-01-07T04:26:13;92598.41;;;6.08;81.91
9676;BME280;4876;42.656;23.292;2024-01-07T04:28:44;92594.22;;;6.07;82.28
9676;BME280;4876;42.656;23.292;2024-01-07T04:31:09;92583.44;;;6.11;83.44
9676;BME280;4876;42.656;23.292;2024-01-07T04:33:35;92569.66;;;6.11;81.52
9676;BME280;4876;42.656;23.292;2024-01-07T04:36:00;92553.31;;;5.86;83.16
9676;BME280;4876;42.656;23.292;2024-01-07T04:38:27;92572.47;;;5.84;84.09
9676;BME280;4876;42.656;23.292;2024-01-07T04:40:52;92579.50;;;5.87;84.02
9676;BME280;4876;42.656;23.292;2024-01-07T04:43:19;92578.38;;;5.92;84.31
9676;BME280;4876;42.656;23.292;2024-01-07T04:45:44;92563.47;;;5.97;83.96
9676;BME280;4876;42.656;23.292;2024-01-07T04:48:10;92566.38;;;6.14;82.83
9676;BME280;4876;42.656;23.292;2024-01-07T04:50:36;92567.28;;;6.19;82.60
9676;BME280;4876;42.656;23.292;2024-01-07T04:53:02;92568.31;;;6.12;82.53
9676;BME280;4876;42.656;23.292;2024-01-07T04:55:29;92571.06;;;6.12;84.33
9676;BME280;4876;42.656;23.292;2024-01-07T04:57:55;92582.47;;;6.20;83.42
9676;BME280;4876;42.656;23.292;2024-01-07T05:00:20;92577.50;;;5.46;85.54
9676;BME280;4876;42.656;23.292;2024-01-07T05:02:46;92585.31;;;5.66;85.67
9676;BME280;4876;42.656;23.292;2024-01-07T05:05:12;92581.53;;;5.86;85.53
9676;BME280;4876;42.656;23.292;2024-01-07T05:07:37;92572.97;;;6.23;82.99
9676;BME280;4876;42.656;23.292;2024-01-07T05:10:03;92565.28;;;6.35;83.40
9676;BME280;4876;42.656;23.292;2024-01-07T05:12:29;92569.63;;;6.40;83.17
9676;BME280;4876;42.656;23.292;2024-01-07T05:14:54;92571.91;;;6.30;83.97
9676;BME280;4876;42.656;23.292;2024-01-07T05:17:20;92566.44;;;6.46;82.97
9676;BME280;4876;42.656;23.292;2024-01-07T05:19:45;92574.88;;;6.34;82.80
9676;BME280;4876;42.656;23.292;2024-01-07T05:22:11;92567.16;;;6.46;83.15
9676;BME280;4876;42.656;23.292;2024-01-07T05:24:37;92560.34;;;6.47;82.60
9676;BME280;4876;42.656;23.292;2024-01-07T05:27:06;92566.88;;;6.40;83.96
9676;BME280;4876;42.656;23.292;2024-01-07T05:29:32;92549.38;;;6.34;83.72
9676;BME280;4876;42.656;23.292;2024-01-07T05:32:00;92561.63;;;6.01;84.01
9676;BME280;4876;42.656;23.292;2024-01-07T05:34:29;92555.44;;;6.46;82.74
9676;BME280;4876;42.656;23.292;2024-01-07T05:36:55;92559.19;;;6.52;81.97
9676;BME280;4876;42.656;23.292;2024-01-07T05:39:20;92556.34;;;6.50;82.04
9676;BME280;4876;42.656;23.292;2024-01-07T05:41:46;92554.63;;;6.43;82.55
9676;BME280;4876;42.656;23.292;2024-01-07T05:44:12;92558.53;;;6.38;82.89
9676;BME280;4876;42.656;23.292;2024-01-07T05:46:41;92553.88;;;5.98;84.92
9676;BME280;4876;42.656;23.292;2024-01-07T05:49:07;92554.66;;;6.14;84.79
9676;BME280;4876;42.656;23.292;2024-01-07T05:51:33;92560.75;;;6.26;83.67
9676;BME280;4876;42.656;23.292;2024-01-07T05:53:58;92558.34;;;6.34;82.71
9676;BME280;4876;42.656;23.292;2024-01-07T05:56:24;92560.53;;;6.22;84.53
9676;BME280;4876;42.656;23.292;2024-01-07T05:58:49;92560.34;;;6.18;84.50
9676;BME280;4876;42.656;23.292;2024-01-07T06:01:19;92560.97;;;6.16;84.38
9676;BME280;4876;42.656;23.292;2024-01-07T06:03:46;92564.63;;;5.78;85.46
9676;BME280;4876;42.656;23.292;2024-01-07T06:06:13;92575.13;;;5.82;86.34
9676;BME280;4876;42.656;23.292;2024-01-07T06:08:40;92551.03;;;5.96;85.17
9676;BME280;4876;42.656;23.292;2024-01-07T06:11:06;92541.13;;;6.04;84.10
9676;BME280;4876;42.656;23.292;2024-01-07T06:13:32;92548.69;;;6.04;84.74
9676;BME280;4876;42.656;23.292;2024-01-07T06:15:57;92536.47;;;5.93;85.38
9676;BME280;4876;42.656;23.292;2024-01-07T06:18:23;92547.53;;;6.09;85.02
9676;BME280;4876;42.656;23.292;2024-01-07T06:20:48;92554.97;;;6.06;84.06
9676;BME280;4876;42.656;23.292;2024-01-07T06:23:14;92544.34;;;5.85;85.96
9676;BME280;4876;42.656;23.292;2024-01-07T06:25:40;92553.53;;;5.90;85.95
9676;BME280;4876;42.656;23.292;2024-01-07T06:28:06;92549.34;;;5.89;85.96
9676;BME280;4876;42.656;23.292;2024-01-07T06:30:31;92560.03;;;5.69;86.66
9676;BME280;4876;42.656;23.292;2024-01-07T06:32:57;92556.66;;;5.84;86.24
9676;BME280;4876;42.656;23.292;2024-01-07T06:35:22;92570.59;;;6.02;86.08
9676;BME280;4876;42.656;23.292;2024-01-07T06:37:48;92586.06;;;6.09;85.35
9676;BME280;4876;42.656;23.292;2024-01-07T06:40:14;92579.28;;;5.96;86.37
9676;BME280;4876;42.656;23.292;2024-01-07T06:42:39;92579.16;;;6.08;86.12
9676;BME280;4876;42.656;23.292;2024-01-07T06:45:06;92592.94;;;5.81;86.69
9676;BME280;4876;42.656;23.292;2024-01-07T06:47:35;92591.13;;;5.85;87.78
9676;BME280;4876;42.656;23.292;2024-01-07T06:50:00;92585.69;;;6.01;87.16
9676;BME280;4876;42.656;23.292;2024-01-07T06:52:26;92586.69;;;6.07;85.30
9676;BME280;4876;42.656;23.292;2024-01-07T06:54:51;92581.59;;;6.02;86.14
9676;BME280;4876;42.656;23.292;2024-01-07T06:57:19;92586.59;;;6.35;85.30
9676;BME280;4876;42.656;23.292;2024-01-07T06:59:45;92590.25;;;6.39;84.24
9676;BME280;4876;42.656;23.292;2024-01-07T07:02:11;92587.03;;;6.29;85.74
9676;BME280;4876;42.656;23.292;2024-01-07T07:04:37;92588.34;;;6.57;84.13
9676;BME280;4876;42.656;23.292;2024-01-07T07:07:03;92575.47;;;6.33;83.80
9676;BME280;4876;42.656;23.292;2024-01-07T07:09:34;92579.25;;;6.39;84.11
9676;BME280;4876;42.656;23.292;2024-01-07T07:12:00;92586.88;;;6.41;84.88
9676;BME280;4876;42.656;23.292;2024-01-07T07:14:25;92587.22;;;6.33;84.79
9676;BME280;4876;42.656;23.292;2024-01-07T07:16:51;92576.94;;;6.49;83.77
9676;BME280;4876;42.656;23.292;2024-01-07T07:19:17;92565.84;;;6.47;83.24
9676;BME280;4876;42.656;23.292;2024-01-07T07:21:43;92566.31;;;6.57;83.04
9676;BME280;4876;42.656;23.292;2024-01-07T07:24:09;92564.81;;;6.70;81.99
9676;BME280;4876;42.656;23.292;2024-01-07T07:26:35;92569.78;;;6.73;83.39
9676;BME280;4876;42.656;23.292;2024-01-07T07:29:01;92574.88;;;6.79;82.82
9676;BME280;4876;42.656;23.292;2024-01-07T07:31:27;92573.06;;;6.86;83.58
9676;BME280;4876;42.656;23.292;2024-01-07T07:33:52;92589.97;;;6.94;82.75
9676;BME280;4876;42.656;23.292;2024-01-07T07:36:18;92581.06;;;6.79;84.53
9676;BME280;4876;42.656;23.292;2024-01-07T07:38:43;92586.78;;;6.99;83.70
9676;BME280;4876;42.656;23.292;2024-01-07T07:41:09;92573.28;;;6.90;83.40
9676;BME280;4876;42.656;23.292;2024-01-07T07:43:34;92560.81;;;6.89;83.17
9676;BME280;4876;42.656;23.292;2024-01-07T07:46:00;92567.41;;;6.82;83.31
9676;BME280;4876;42.656;23.292;2024-01-07T07:48:28;92573.81;;;7.02;82.48
9676;BME280;4876;42.656;23.292;2024-01-07T07:50:54;92572.72;;;7.09;82.30
9676;BME280;4876;42.656;23.292;2024-01-07T07:53:20;92584.38;;;7.23;83.60
9676;BME280;4876;42.656;23.292;2024-01-07T07:55:45;92573.78;;;7.33;81.86
9676;BME280;4876;42.656;23.292;2024-01-07T07:58:11;92569.16;;;7.22;81.70
9676;BME280;4876;42.656;23.292;2024-01-07T08:00:36;92569.81;;;7.54;78.37
9676;BME280;4876;42.656;23.292;2024-01-07T08:03:02;92569.63;;;7.65;78.53
9676;BME280;4876;42.656;23.292;2024-01-07T08:05:28;92572.63;;;7.38;79.77
9676;BME280;4876;42.656;23.292;2024-01-07T08:07:53;92577.88;;;7.48;80.59
9676;BME280;4876;42.656;23.292;2024-01-07T08:10:20;92576.25;;;7.27;82.16
9676;BME280;4876;42.656;23.292;2024-01-07T08:12:48;92572.25;;;7.30;82.96
9676;BME280;4876;42.656;23.292;2024-01-07T08:15:14;92578.56;;;7.64;80.56
9676;BME280;4876;42.656;23.292;2024-01-07T08:17:40;92572.72;;;7.73;80.95
9676;BME280;4876;42.656;23.292;2024-01-07T08:20:06;92570.00;;;7.58;80.21
9676;BME280;4876;42.656;23.292;2024-01-07T08:22:31;92560.78;;;7.84;77.79
9676;BME280;4876;42.656;23.292;2024-01-07T08:24:57;92561.84;;;7.77;76.63
9676;BME280;4876;42.656;23.292;2024-01-07T08:27:23;92573.34;;;7.72;78.70
9676;BME280;4876;42.656;23.292;2024-01-07T08:29:48;92570.13;;;7.77;79.43
9676;BME280;4876;42.656;23.292;2024-01-07T08:32:14;92570.19;;;7.95;78.38
9676;BME280;4876;42.656;23.292;2024-01-07T08:34:39;92569.16;;;8.04;76.77
9676;BME280;4876;42.656;23.292;2024-01-07T08:37:05;92573.63;;;7.95;77.25
9676;BME280;4876;42.656;23.292;2024-01-07T08:39:30;92587.09;;;8.21;76.15
9676;BME280;4876;42.656;23.292;2024-01-07T08:41:56;92578.63;;;8.17;75.86
9676;BME280;4876;42.656;23.292;2024-01-07T08:44:21;92571.28;;;8.06;77.15
9676;BME280;4876;42.656;23.292;2024-01-07T08:46:47;92574.28;;;8.12;77.17
9676;BME280;4876;42.656;23.292;2024-01-07T08:49:12;92575.72;;;8.13;76.71
9676;BME280;4876;42.656;23.292;2024-01-07T08:51:39;92567.97;;;7.91;78.02
9676;BME280;4876;42.656;23.292;2024-01-07T08:54:05;92565.97;;;8.45;76.23
9676;BME280;4876;42.656;23.292;2024-01-07T08:56:30;92562.16;;;8.54;75.52
9676;BME280;4876;42.656;23.292;2024-01-07T08:59:04;92553.88;;;8.54;75.32
9676;BME280;4876;42.656;23.292;2024-01-07T09:01:30;92556.50;;;8.50;75.46
9676;BME280;4876;42.656;23.292;2024-01-07T09:03:56;92547.72;;;8.38;76.83
9676;BME280;4876;42.656;23.292;2024-01-07T09:06:21;92547.94;;;8.09;78.11
9676;BME280;4876;42.656;23.292;2024-01-07T09:08:47;92561.94;;;8.48;75.74
9676;BME280;4876;42.656;23.292;2024-01-07T09:11:13;92563.97;;;8.30;75.41
9676;BME280;4876;42.656;23.292;2024-01-07T09:13:38;92566.75;;;8.30;75.95
9676;BME280;4876;42.656;23.292;2024-01-07T09:16:04;92563.97;;;8.30;77.33
9676;BME280;4876;42.656;23.292;2024-01-07T09:18:30;92579.47;;;8.54;76.62
9676;BME280;4876;42.656;23.292;2024-01-07T09:20:56;92577.34;;;8.53;75.66
9676;BME280;4876;42.656;23.292;2024-01-07T09:23:22;92569.84;;;8.55;75.73
9676;BME280;4876;42.656;23.292;2024-01-07T09:25:47;92578.25;;;8.77;76.08
9676;BME280;4876;42.656;23.292;2024-01-07T09:28:14;92566.97;;;9.08;75.02
9676;BME280;4876;42.656;23.292;2024-01-07T09:30:40;92576.13;;;9.13;74.77
9676;BME280;4876;42.656;23.292;2024-01-07T09:33:05;92562.59;;;9.21;73.54
9676;BME280;4876;42.656;23.292;2024-01-07T09:35:31;92565.00;;;9.31;72.90
9676;BME280;4876;42.656;23.292;2024-01-07T09:37:56;92560.75;;;9.28;74.10
9676;BME280;4876;42.656;23.292;2024-01-07T09:40:22;92555.34;;;9.12;73.99
9676;BME280;4876;42.656;23.292;2024-01-07T09:42:47;92554.63;;;9.11;74.49
9676;BME280;4876;42.656;23.292;2024-01-07T09:45:14;92550.59;;;9.54;75.24
9676;BME280;4876;42.656;23.292;2024-01-07T09:47:44;92556.91;;;9.56;71.99
9676;BME280;4876;42.656;23.292;2024-01-07T09:50:11;92562.84;;;8.90;73.82
9676;BME280;4876;42.656;23.292;2024-01-07T09:52:43;92559.41;;;9.29;72.45
9676;BME280;4876;42.656;23.292;2024-01-07T09:55:12;92562.84;;;8.90;73.36
9676;BME280;4876;42.656;23.292;2024-01-07T09:57:44;92560.75;;;9.28;72.19
9676;BME280;4876;42.656;23.292;2024-01-07T10:00:11;92553.38;;;9.34;71.73
9676;BME280;4876;42.656;23.292;2024-01-07T10:02:37;92559.88;;;9.62;70.88
9676;BME280;4876;42.656;23.292;2024-01-07T10:05:03;92551.38;;;9.56;71.08
9676;BME280;4876;42.656;23.292;2024-01-07T10:07:28;92543.22;;;9.60;69.56
9676;BME280;4876;42.656;23.292;2024-01-07T10:09:54;92534.47;;;9.68;70.29
9676;BME280;4876;42.656;23.292;2024-01-07T10:12:24;92531.75;;;9.90;69.77
9676;BME280;4876;42.656;23.292;2024-01-07T10:14:49;92531.16;;;9.93;71.09
9676;BME280;4876;42.656;23.292;2024-01-07T10:17:15;92513.47;;;10.02;68.75
9676;BME280;4876;42.656;23.292;2024-01-07T10:19:44;92519.50;;;10.16;69.41
9676;BME280;4876;42.656;23.292;2024-01-07T10:22:13;92517.03;;;10.26;67.84
9676;BME280;4876;42.656;23.292;2024-01-07T10:24:41;92507.69;;;10.16;67.22
9676;BME280;4876;42.656;23.292;2024-01-07T10:27:07;92517.91;;;10.11;68.39
9676;BME280;4876;42.656;23.292;2024-01-07T10:29:33;92516.09;;;9.98;68.04
9676;BME280;4876;42.656;23.292;2024-01-07T10:32:00;92499.84;;;9.67;69.93
9676;BME280;4876;42.656;23.292;2024-01-07T10:34:30;92497.34;;;9.75;69.96
9676;BME280;4876;42.656;23.292;2024-01-07T10:36:58;92498.78;;;9.98;69.15
9676;BME280;4876;42.656;23.292;2024-01-07T10:39:24;92494.56;;;9.75;67.95
9676;BME280;4876;42.656;23.292;2024-01-07T10:41:50;92496.97;;;10.06;67.54
9676;BME280;4876;42.656;23.292;2024-01-07T10:44:19;92497.31;;;10.16;68.20
9676;BME280;4876;42.656;23.292;2024-01-07T10:46:46;92497.97;;;10.15;70.43
9676;BME280;4876;42.656;23.292;2024-01-07T10:49:24;92485.72;;;10.00;71.20
9676;BME280;4876;42.656;23.292;2024-01-07T10:52:03;92486.47;;;9.81;71.09
9676;BME280;4876;42.656;23.292;2024-01-07T10:54:30;92495.78;;;9.70;70.95
9676;BME280;4876;42.656;23.292;2024-01-07T10:57:12;92504.56;;;10.06;68.83
9676;BME280;4876;42.656;23.292;2024-01-07T10:59:41;92491.75;;;9.95;70.03
9676;BME280;4876;42.656;23.292;2024-01-07T11:02:07;92491.34;;;10.04;70.45
9676;BME280;4876;42.656;23.292;2024-01-07T11:04:43;92486.41;;;9.79;69.58
9676;BME280;4876;42.656;23.292;2024-01-07T11:07:34;92484.78;;;9.72;71.43
9676;BME280;4876;42.656;23.292;2024-01-07T11:10:12;92492.66;;;10.01;66.61
9676;BME280;4876;42.656;23.292;2024-01-07T11:12:39;92498.91;;;10.02;66.79
9676;BME280;4876;42.656;23.292;2024-01-07T11:15:04;92493.53;;;9.86;67.71
9676;BME280;4876;42.656;23.292;2024-01-07T11:20:02;92487.94;;;9.84;67.01
9676;BME280;4876;42.656;23.292;2024-01-07T11:22:28;92486.19;;;9.73;67.97
9676;BME280;4876;42.656;23.292;2024-01-07T11:24:54;92476.47;;;9.72;68.58
9676;BME280;4876;42.656;23.292;2024-01-07T11:27:25;92497.28;;;9.73;69.75
9676;BME280;4876;42.656;23.292;2024-01-07T11:30:01;92496.78;;;10.00;69.09
9676;BME280;4876;42.656;23.292;2024-01-07T11:32:30;92485.81;;;10.04;66.82
9676;BME280;4876;42.656;23.292;2024-01-07T11:34:56;92486.00;;;9.89;67.40
9676;BME280;4876;42.656;23.292;2024-01-07T11:37:24;92493.50;;;9.84;69.03
9676;BME280;4876;42.656;23.292;2024-01-07T11:39:56;92493.69;;;9.90;68.46
9676;BME280;4876;42.656;23.292;2024-01-07T11:42:22;92491.75;;;9.95;69.14
9676;BME280;4876;42.656;23.292;2024-01-07T11:44:51;92495.50;;;10.03;68.07
9676;BME280;4876;42.656;23.292;2024-01-07T11:47:16;92503.03;;;10.01;68.65
9676;BME280;4876;42.656;23.292;2024-01-07T11:49:45;92503.44;;;10.13;68.02
9676;BME280;4876;42.656;23.292;2024-01-07T11:52:11;92500.00;;;10.14;69.47
9676;BME280;4876;42.656;23.292;2024-01-07T11:54:38;92500.19;;;9.99;69.08
9676;BME280;4876;42.656;23.292;2024-01-07T11:57:25;92496.22;;;10.25;67.49
9676;BME280;4876;42.656;23.292;2024-01-07T11:59:51;92491.91;;;10.20;67.60
9676;BME280;4876;42.656;23.292;2024-01-07T12:02:16;92490.72;;;10.27;67.88
9676;BME280;4876;42.656;23.292;2024-01-07T12:04:42;92492.22;;;10.30;67.30
9676;BME280;4876;42.656;23.292;2024-01-07T12:07:08;92487.06;;;10.21;68.58
9676;BME280;4876;42.656;23.292;2024-01-07T12:09:35;92492.91;;;10.09;68.08
9676;BME280;4876;42.656;23.292;2024-01-07T12:12:01;92495.03;;;10.11;67.76
9676;BME280;4876;42.656;23.292;2024-01-07T12:14:28;92494.63;;;10.18;68.58
9676;BME280;4876;42.656;23.292;2024-01-07T12:16:55;92499.72;;;10.06;68.27
9676;BME280;4876;42.656;23.292;2024-01-07T12:19:21;92500.06;;;10.38;67.41
9676;BME280;4876;42.656;23.292;2024-01-07T12:21:47;92498.41;;;10.29;67.58
9676;BME280;4876;42.656;23.292;2024-01-07T12:24:13;92498.91;;;10.23;67.79
9676;BME280;4876;42.656;23.292;2024-01-07T12:26:39;92496.53;;;9.92;68.70
9676;BME280;4876;42.656;23.292;2024-01-07T12:29:04;92495.47;;;9.81;69.30
9676;BME280;4876;42.656;23.292;2024-01-07T12:31:34;92494.84;;;9.83;69.32
9676;BME280;4876;42.656;23.292;2024-01-07T12:34:01;92489.75;;;9.75;69.07
9676;BME280;4876;42.656;23.292;2024-01-07T12:36:29;92496.97;;;9.84;69.24
9676;BME280;4876;42.656;23.292;2024-01-07T12:38:55;92496.47;;;9.90;68.50
9676;BME280;4876;42.656;23.292;2024-01-07T12:41:22;92498.06;;;9.97;69.09
9676;BME280;4876;42.656;23.292;2024-01-07T12:43:48;92492.28;;;10.11;67.03
9676;BME280;4876;42.656;23.292;2024-01-07T12:46:15;92490.31;;;10.13;67.62
9676;BME280;4876;42.656;23.292;2024-01-07T12:48:40;92481.81;;;10.09;66.99
9676;BME280;4876;42.656;23.292;2024-01-07T12:51:06;92495.31;;;10.19;66.35
9676;BME280;4876;42.656;23.292;2024-01-07T12:53:31;92498.63;;;10.13;67.95
9676;BME280;4876;42.656;23.292;2024-01-07T12:55:57;92495.50;;;10.03;68.00
9676;BME280;4876;42.656;23.292;2024-01-07T12:58:22;92497.34;;;9.97;67.78
9676;BME280;4876;42.656;23.292;2024-01-07T13:00:48;92516.09;;;9.98;68.15
9676;BME280;4876;42.656;23.292;2024-01-07T13:03:14;92506.06;;;9.87;67.72
9676;BME280;4876;42.656;23.292;2024-01-07T13:05:46;92515.75;;;9.88;68.65
9676;BME280;4876;42.656;23.292;2024-01-07T13:08:15;92507.28;;;9.82;69.19
9676;BME280;4876;42.656;23.292;2024-01-07T13:10:43;92519.81;;;9.85;69.27
9676;BME280;4876;42.656;23.292;2024-01-07T13:13:09;92519.81;;;9.85;69.61
9676;BME280;4876;42.656;23.292;2024-01-07T13:15:35;92516.88;;;10.01;70.03
9676;BME280;4876;42.656;23.292;2024-01-07T13:18:01;92514.19;;;10.03;68.65